sensor_id;sensor_type;location;lat;lon;timestamp;temperature;humidity
36816;DHT22;71982;52.294;6.760;2024-02-23T00:02:18;5.00;99.90
36816;DHT22;71982;52.294;6.760;2024-02-23T00:04:46;5.00;99.90
36816;DHT22;71982;52.294;6.760;2024-02-23T00:07:13;4.90;99.90
36816;DHT22;71982;52.294;6.760;2024-02-23T00:09:40;4.90;99.90
36816;DHT22;71982;52.294;6.760;2024-02-23T00:12:09;4.90;99.90
36816;DHT22;71982;52.294;6.760;2024-02-23T00:14:36;4.90;99.90
36816;DHT22;71982;52.294;6.760;2024-02-23T00:17:03;5.00;99.90
36816;DHT22;71982;52.294;6.760;2024-02-23T00:19:30;4.90;99.90
36816;DHT22;71982;52.294;6.760;2024-02-23T00:22:01;4.90;99.90
36816;DHT22;71982;52.294;6.760;2024-02-23T00:24:29;4.90;99.90
36816;DHT22;71982;52.294;6.760;2024-02-23T00:26:56;4.90;99.90
36816;DHT22;71982;52.294;6.760;2024-02-23T00:29:23;4.80;99.90
36816;DHT22;71982;52.294;6.760;2024-02-23T00:31:50;4.90;99.90
36816;DHT22;71982;52.294;6.760;2024-02-23T00:34:23;4.90;99.90
36816;DHT22;71982;52.294;6.760;2024-02-23T00:36:50;4.80;99.90
36816;DHT22;71982;52.294;6.760;2024-02-23T00:39:19;4.80;99.90
36816;DHT22;71982;52.294;6.760;2024-02-23T00:41:46;4.70;99.90
36816;DHT22;71982;52.294;6.760;2024-02-23T00:44:13;4.70;99.90
36816;DHT22;71982;52.294;6.760;2024-02-23T00:46:40;4.70;99.90
36816;DHT22;71982;52.294;6.760;2024-02-23T00:49:10;4.70;99.90
36816;DHT22;71982;52.294;6.760;2024-02-23T00:51:37;4.70;99.90
36816;DHT22;71982;52.294;6.760;2024-02-23T00:54:04;4.60;99.90
36816;DHT22;71982;52.294;6.760;2024-02-23T00:56:36;4.60;99.90
36816;DHT22;71982;52.294;6.760;2024-02-23T00:59:03;4.60;99.90
36816;DHT22;71982;52.294;6.760;2024-02-23T01:01:29;4.60;99.90
36816;DHT22;71982;52.294;6.760;2024-02-23T01:04:00;4.60;99.90
36816;DHT22;71982;52.294;6.760;2024-02-23T01:06:30;4.60;99.90
36816;DHT22;71982;52.294;6.760;2024-02-23T01:09:00;4.60;99.90
36816;DHT22;71982;52.294;6.760;2024-02-23T01:11:30;4.70;99.90
36816;DHT22;71982;52.294;6.760;2024-02-23T01:13:58;4.70;99.90
36816;DHT22;71982;52.294;6.760;2024-02-23T01:16:25;4.70;99.90
36816;DHT22;71982;52.294;6.760;2024-02-23T01:18:52;4.80;99.90
36816;DHT22;71982;52.294;6.760;2024-02-23T01:21:19;4.80;99.90
36816;DHT22;71982;52.294;6.760;2024-02-23T01:23:45;4.80;99.90
36816;DHT22;71982;52.294;6.760;2024-02-23T01:26:12;4.90;99.90
36816;DHT22;71982;52.294;6.760;2024-02-23T01:28:38;4.90;99.90
36816;DHT22;71982;52.294;6.760;2024-02-23T01:31:11;4.90;99.90
36816;DHT22;71982;52.294;6.760;2024-02-23T01:33:39;4.90;99.90
36816;DHT22;71982;52.294;6.760;2024-02-23T01:36:06;5.00;99.90
36816;DHT22;71982;52.294;6.760;2024-02-23T01:38:33;5.00;99.90
36816;DHT22;71982;52.294;6.760;2024-02-23T01:41:01;5.00;99.90
36816;DHT22;71982;52.294;6.760;2024-02-23T01:43:28;5.10;99.90
36816;DHT22;71982;52.294;6.760;2024-02-23T01:45:55;5.00;99.90
36816;DHT22;71982;52.294;6.760;2024-02-23T01:48:23;5.00;99.90
36816;DHT22;71982;52.294;6.760;2024-02-23T01:50:50;5.00;99.90
36816;DHT22;71982;52.294;6.760;2024-02-23T01:53:18;5.00;99.90
36816;DHT22;71982;52.294;6.760;2024-02-23T01:55:47;5.00;99.90
36816;DHT22;71982;52.294;6.760;2024-02-23T01:58:14;5.00;99.90
36816;DHT22;71982;52.294;6.760;2024-02-23T02:00:41;5.10;99.90
36816;DHT22;71982;52.294;6.760;2024-02-23T02:03:08;5.00;99.90
36816;DHT22;71982;52.294;6.760;2024-02-23T02:05:37;4.90;99.90
36816;DHT22;71982;52.294;6.760;2024-02-23T02:08:05;4.80;99.90
36816;DHT22;71982;52.294;6.760;2024-02-23T02:10:32;4.60;99.90
36816;DHT22;71982;52.294;6.760;2024-02-23T02:13:08;4.40;99.90
36816;DHT22;71982;52.294;6.760;2024-02-23T02:15:37;4.40;99.90
36816;DHT22;71982;52.294;6.760;2024-02-23T02:18:05;4.40;99.90
36816;DHT22;71982;52.294;6.760;2024-02-23T02:20:32;4.40;99.90
36816;DHT22;71982;52.294;6.760;2024-02-23T02:23:04;4.50;99.90
36816;DHT22;71982;52.294;6.760;2024-02-23T02:25:39;4.50;99.90
36816;DHT22;71982;52.294;6.760;2024-02-23T02:28:06;4.50;99.90
36816;DHT22;71982;52.294;6.760;2024-02-23T02:30:34;4.50;99.90
36816;DHT22;71982;52.294;6.760;2024-02-23T02:33:01;4.50;99.90
36816;DHT22;71982;52.294;6.760;2024-02-23T02:35:28;4.50;99.90
36816;DHT22;71982;52.294;6.760;2024-02-23T02:37:55;4.50;99.90
36816;DHT22;71982;52.294;6.760;2024-02-23T02:40:23;4.50;99.90
36816;DHT22;71982;52.294;6.760;2024-02-23T02:42:50;4.40;99.90
36816;DHT22;71982;52.294;6.760;2024-02-23T02:45:17;4.40;99.90
36816;DHT22;71982;52.294;6.760;2024-02-23T02:47:44;4.40;99.90
36816;DHT22;71982;52.294;6.760;2024-02-23T02:50:11;4.50;99.90
36816;DHT22;71982;52.294;6.760;2024-02-23T02:52:37;4.60;99.90
36816;DHT22;71982;52.294;6.760;2024-02-23T02:55:05;4.60;99.90
36816;DHT22;71982;52.294;6.760;2024-02-23T02:57:36;4.60;99.90
36816;DHT22;71982;52.294;6.760;2024-02-23T03:00:03;4.60;99.90
36816;DHT22;71982;52.294;6.760;2024-02-23T03:02:30;4.70;99.90
36816;DHT22;71982;52.294;6.760;2024-02-23T03:05:00;4.90;99.90
36816;DHT22;71982;52.294;6.760;2024-02-23T03:07:30;5.10;99.90
36816;DHT22;71982;52.294;6.760;2024-02-23T03:10:03;5.10;99.90
36816;DHT22;71982;52.294;6.760;2024-02-23T03:12:30;5.20;99.90
36816;DHT22;71982;52.294;6.760;2024-02-23T03:14:58;5.20;99.90
36816;DHT22;71982;52.294;6.760;2024-02-23T03:17:30;5.20;99.90
36816;DHT22;71982;52.294;6.760;2024-02-23T03:19:59;5.30;99.90
36816;DHT22;71982;52.294;6.760;2024-02-23T03:22:29;5.30;99.90
36816;DHT22;71982;52.294;6.760;2024-02-23T03:24:56;5.20;99.90
36816;DHT22;71982;52.294;6.760;2024-02-23T03:27:29;5.30;99.90
36816;DHT22;71982;52.294;6.760;2024-02-23T03:30:00;5.20;99.90
36816;DHT22;71982;52.294;6.760;2024-02-23T03:32:32;5.20;99.90
36816;DHT22;71982;52.294;6.760;2024-02-23T03:35:02;5.20;99.90
36816;DHT22;71982;52.294;6.760;2024-02-23T03:37:30;5.20;99.90
36816;DHT22;71982;52.294;6.760;2024-02-23T03:40:00;5.20;99.90
36816;DHT22;71982;52.294;6.760;2024-02-23T03:42:31;5.10;99.90
36816;DHT22;71982;52.294;6.760;2024-02-23T03:44:59;5.20;99.90
36816;DHT22;71982;52.294;6.760;2024-02-23T03:47:26;5.10;99.90
36816;DHT22;71982;52.294;6.760;2024-02-23T03:49:55;5.00;99.90
36816;DHT22;71982;52.294;6.760;2024-02-23T03:52:23;5.00;99.90
36816;DHT22;71982;52.294;6.760;2024-02-23T03:54:51;5.00;99.90
36816;DHT22;71982;52.294;6.760;2024-02-23T03:57:19;5.00;99.90
36816;DHT22;71982;52.294;6.760;2024-02-23T03:59:51;5.10;99.90
36816;DHT22;71982;52.294;6.760;2024-02-23T04:02:23;5.10;99.90
36816;DHT22;71982;52.294;6.760;2024-02-23T04:05:00;5.10;99.90
36816;DHT22;71982;52.294;6.760;2024-02-23T04:07:37;5.20;99.90
36816;DHT22;71982;52.294;6.760;2024-02-23T04:10:04;5.30;99.90
36816;DHT22;71982;52.294;6.760;2024-02-23T04:12:32;5.30;99.90
36816;DHT22;71982;52.294;6.760;2024-02-23T04:15:01;5.30;99.90
36816;DHT22;71982;52.294;6.760;2024-02-23T04:17:29;5.30;99.90
36816;DHT22;71982;52.294;6.760;2024-02-23T04:19:56;5.30;99.90
36816;DHT22;71982;52.294;6.760;2024-02-23T04:22:24;5.30;99.90
36816;DHT22;71982;52.294;6.760;2024-02-23T04:24:51;5.30;99.90
36816;DHT22;71982;52.294;6.760;2024-02-23T04:27:18;5.30;99.90
36816;DHT22;71982;52.294;6.760;2024-02-23T04:29:45;5.30;99.90
36816;DHT22;71982;52.294;6.760;2024-02-23T04:32:12;5.30;99.90
36816;DHT22;71982;52.294;6.760;2024-02-23T04:34:40;5.30;99.90
36816;DHT22;71982;52.294;6.760;2024-02-23T04:37:10;5.30;99.90
36816;DHT22;71982;52.294;6.760;2024-02-23T04:39:37;5.30;99.90
36816;DHT22;71982;52.294;6.760;2024-02-23T04:42:10;5.20;99.90
36816;DHT22;71982;52.294;6.760;2024-02-23T04:44:37;5.20;99.90
36816;DHT22;71982;52.294;6.760;2024-02-23T04:47:04;5.20;99.90
36816;DHT22;71982;52.294;6.760;2024-02-23T04:49:31;5.20;99.90
36816;DHT22;71982;52.294;6.760;2024-02-23T04:52:05;5.20;99.90
36816;DHT22;71982;52.294;6.760;2024-02-23T04:54:32;5.30;99.90
36816;DHT22;71982;52.294;6.760;2024-02-23T04:57:01;5.30;99.90
36816;DHT22;71982;52.294;6.760;2024-02-23T04:59:28;5.30;99.90
36816;DHT22;71982;52.294;6.760;2024-02-23T05:02:00;5.30;99.90
36816;DHT22;71982;52.294;6.760;2024-02-23T05:04:29;5.30;99.90
36816;DHT22;71982;52.294;6.760;2024-02-23T05:06:56;5.30;99.90
36816;DHT22;71982;52.294;6.760;2024-02-23T05:09:25;5.30;99.90
36816;DHT22;71982;52.294;6.760;2024-02-23T05:11:52;5.30;99.90
36816;DHT22;71982;52.294;6.760;2024-02-23T05:14:19;5.20;99.90
36816;DHT22;71982;52.294;6.760;2024-02-23T05:16:48;5.30;99.90
36816;DHT22;71982;52.294;6.760;2024-02-23T05:19:14;5.40;99.90
36816;DHT22;71982;52.294;6.760;2024-02-23T05:21:41;5.40;99.90
36816;DHT22;71982;52.294;6.760;2024-02-23T05:24:10;5.30;99.90
36816;DHT22;71982;52.294;6.760;2024-02-23T05:26:39;5.30;99.90
36816;DHT22;71982;52.294;6.760;2024-02-23T05:29:06;5.30;99.90
36816;DHT22;71982;52.294;6.760;2024-02-23T05:31:46;5.30;99.90
36816;DHT22;71982;52.294;6.760;2024-02-23T05:34:16;5.30;99.90
36816;DHT22;71982;52.294;6.760;2024-02-23T05:36:43;5.30;99.90
36816;DHT22;71982;52.294;6.760;2024-02-23T05:39:11;5.20;99.90
36816;DHT22;71982;52.294;6.760;2024-02-23T05:41:39;5.30;99.90
36816;DHT22;71982;52.294;6.760;2024-02-23T05:44:06;5.30;99.90
36816;DHT22;71982;52.294;6.760;2024-02-23T05:46:35;5.30;99.90
36816;DHT22;71982;52.294;6.760;2024-02-23T05:49:03;5.30;99.90
36816;DHT22;71982;52.294;6.760;2024-02-23T05:51:30;5.40;99.90
36816;DHT22;71982;52.294;6.760;2024-02-23T05:54:00;5.30;99.90
36816;DHT22;71982;52.294;6.760;2024-02-23T05:56:30;5.40;99.90
36816;DHT22;71982;52.294;6.760;2024-02-23T05:59:03;5.40;99.90
36816;DHT22;71982;52.294;6.760;2024-02-23T06:01:31;5.40;99.90
36816;DHT22;71982;52.294;6.760;2024-02-23T06:03:59;5.40;99.90
36816;DHT22;71982;52.294;6.760;2024-02-23T06:06:26;5.40;99.90
36816;DHT22;71982;52.294;6.760;2024-02-23T06:08:53;5.40;99.90
36816;DHT22;71982;52.294;6.760;2024-02-23T06:11:23;5.40;99.90
36816;DHT22;71982;52.294;6.760;2024-02-23T06:13:50;5.40;99.90
36816;DHT22;71982;52.294;6.760;2024-02-23T06:16:19;5.40;99.90
36816;DHT22;71982;52.294;6.760;2024-02-23T06:18:46;5.40;99.90
36816;DHT22;71982;52.294;6.760;2024-02-23T06:21:13;5.40;99.90
36816;DHT22;71982;52.294;6.760;2024-02-23T06:23:41;5.50;99.90
36816;DHT22;71982;52.294;6.760;2024-02-23T06:26:11;5.50;99.90
36816;DHT22;71982;52.294;6.760;2024-02-23T06:28:39;5.50;99.90
36816;DHT22;71982;52.294;6.760;2024-02-23T06:31:10;5.50;99.90
36816;DHT22;71982;52.294;6.760;2024-02-23T06:33:38;5.50;99.90
36816;DHT22;71982;52.294;6.760;2024-02-23T06:36:07;5.50;99.90
36816;DHT22;71982;52.294;6.760;2024-02-23T06:38:34;5.50;99.90
36816;DHT22;71982;52.294;6.760;2024-02-23T06:41:04;5.50;99.90
36816;DHT22;71982;52.294;6.760;2024-02-23T06:43:31;5.60;99.90
36816;DHT22;71982;52.294;6.760;2024-02-23T06:46:04;5.60;99.90
36816;DHT22;71982;52.294;6.760;2024-02-23T06:48:31;5.60;99.90
36816;DHT22;71982;52.294;6.760;2024-02-23T06:51:04;5.70;99.90
36816;DHT22;71982;52.294;6.760;2024-02-23T06:53:31;5.60;99.90
36816;DHT22;71982;52.294;6.760;2024-02-23T06:56:01;5.70;99.90
36816;DHT22;71982;52.294;6.760;2024-02-23T06:58:30;5.70;99.90
36816;DHT22;71982;52.294;6.760;2024-02-23T07:01:00;5.70;99.90
36816;DHT22;71982;52.294;6.760;2024-02-23T07:03:31;5.70;99.90
36816;DHT22;71982;52.294;6.760;2024-02-23T07:05:59;5.80;99.90
36816;DHT22;71982;52.294;6.760;2024-02-23T07:08:26;5.80;99.90
36816;DHT22;71982;52.294;6.760;2024-02-23T07:10:55;5.80;99.90
36816;DHT22;71982;52.294;6.760;2024-02-23T07:13:22;5.80;99.90
36816;DHT22;71982;52.294;6.760;2024-02-23T07:15:49;5.90;99.90
36816;DHT22;71982;52.294;6.760;2024-02-23T07:18:16;5.90;99.90
36816;DHT22;71982;52.294;6.760;2024-02-23T07:20:43;5.90;99.90
36816;DHT22;71982;52.294;6.760;2024-02-23T07:23:11;6.00;99.90
36816;DHT22;71982;52.294;6.760;2024-02-23T07:25:38;6.00;99.90
36816;DHT22;71982;52.294;6.760;2024-02-23T07:28:06;6.10;99.90
36816;DHT22;71982;52.294;6.760;2024-02-23T07:30:35;6.20;99.90
36816;DHT22;71982;52.294;6.760;2024-02-23T07:33:02;6.20;99.90
36816;DHT22;71982;52.294;6.760;2024-02-23T07:35:29;6.20;99.90
36816;DHT22;71982;52.294;6.760;2024-02-23T07:37:56;6.20;99.90
36816;DHT22;71982;52.294;6.760;2024-02-23T07:40:26;6.20;99.90
36816;DHT22;71982;52.294;6.760;2024-02-23T07:42:53;6.40;99.90
36816;DHT22;71982;52.294;6.760;2024-02-23T07:45:20;6.40;99.90
36816;DHT22;71982;52.294;6.760;2024-02-23T07:47:50;6.50;99.90
36816;DHT22;71982;52.294;6.760;2024-02-23T07:50:17;6.40;99.90
36816;DHT22;71982;52.294;6.760;2024-02-23T07:52:44;6.40;99.90
36816;DHT22;71982;52.294;6.760;2024-02-23T07:55:12;6.50;99.90
36816;DHT22;71982;52.294;6.760;2024-02-23T07:57:40;6.50;99.90
36816;DHT22;71982;52.294;6.760;2024-02-23T08:00:10;6.60;99.90
36816;DHT22;71982;52.294;6.760;2024-02-23T08:02:37;6.60;99.90
36816;DHT22;71982;52.294;6.760;2024-02-23T08:05:05;6.70;99.90
36816;DHT22;71982;52.294;6.760;2024-02-23T08:07:32;6.80;99.90
36816;DHT22;71982;52.294;6.760;2024-02-23T08:10:01;6.70;99.90
36816;DHT22;71982;52.294;6.760;2024-02-23T08:12:30;6.70;99.90
36816;DHT22;71982;52.294;6.760;2024-02-23T08:15:02;6.80;99.90
36816;DHT22;71982;52.294;6.760;2024-02-23T08:17:31;6.80;99.90
36816;DHT22;71982;52.294;6.760;2024-02-23T08:19:59;6.80;99.90
36816;DHT22;71982;52.294;6.760;2024-02-23T08:22:26;7.00;99.90
36816;DHT22;71982;52.294;6.760;2024-02-23T08:24:55;7.20;99.90
36816;DHT22;71982;52.294;6.760;2024-02-23T08:27:21;7.60;99.90
36816;DHT22;71982;52.294;6.760;2024-02-23T08:29:47;7.50;99.90
36816;DHT22;71982;52.294;6.760;2024-02-23T08:32:16;7.40;99.90
36816;DHT22;71982;52.294;6.760;2024-02-23T08:34:43;7.30;99.90
36816;DHT22;71982;52.294;6.760;2024-02-23T08:37:10;7.20;99.90
36816;DHT22;71982;52.294;6.760;2024-02-23T08:39:37;7.10;99.90
36816;DHT22;71982;52.294;6.760;2024-02-23T08:42:04;7.10;99.90
36816;DHT22;71982;52.294;6.760;2024-02-23T08:44:31;7.20;99.90
36816;DHT22;71982;52.294;6.760;2024-02-23T08:46:58;7.20;99.90
36816;DHT22;71982;52.294;6.760;2024-02-23T08:49:31;7.30;99.90
36816;DHT22;71982;52.294;6.760;2024-02-23T08:52:01;7.30;99.90
36816;DHT22;71982;52.294;6.760;2024-02-23T08:54:29;7.30;99.90
36816;DHT22;71982;52.294;6.760;2024-02-23T08:56:56;7.30;99.90
36816;DHT22;71982;52.294;6.760;2024-02-23T08:59:25;7.30;99.90
36816;DHT22;71982;52.294;6.760;2024-02-23T09:01:52;7.50;99.90
36816;DHT22;71982;52.294;6.760;2024-02-23T09:04:19;7.40;99.90
36816;DHT22;71982;52.294;6.760;2024-02-23T09:06:47;7.60;99.90
36816;DHT22;71982;52.294;6.760;2024-02-23T09:09:15;7.60;99.90
36816;DHT22;71982;52.294;6.760;2024-02-23T09:11:42;8.00;99.90
36816;DHT22;71982;52.294;6.760;2024-02-23T09:14:09;8.20;99.90
36816;DHT22;71982;52.294;6.760;2024-02-23T09:16:36;8.30;99.90
36816;DHT22;71982;52.294;6.760;2024-02-23T09:19:02;8.30;99.90
36816;DHT22;71982;52.294;6.760;2024-02-23T09:21:29;8.20;99.90
36816;DHT22;71982;52.294;6.760;2024-02-23T09:24:00;8.00;99.90
36816;DHT22;71982;52.294;6.760;2024-02-23T09:26:29;7.80;99.90
36816;DHT22;71982;52.294;6.760;2024-02-23T09:28:56;7.70;99.90
36816;DHT22;71982;52.294;6.760;2024-02-23T09:31:23;7.80;99.90
36816;DHT22;71982;52.294;6.760;2024-02-23T09:33:51;7.80;99.90
36816;DHT22;71982;52.294;6.760;2024-02-23T09:36:18;7.80;99.90
36816;DHT22;71982;52.294;6.760;2024-02-23T09:38:47;8.00;99.90
36816;DHT22;71982;52.294;6.760;2024-02-23T09:41:19;8.20;99.90
36816;DHT22;71982;52.294;6.760;2024-02-23T09:43:47;8.30;99.90
36816;DHT22;71982;52.294;6.760;2024-02-23T09:46:15;8.30;99.90
36816;DHT22;71982;52.294;6.760;2024-02-23T09:48:43;8.40;99.90
36816;DHT22;71982;52.294;6.760;2024-02-23T09:51:13;8.30;99.90
36816;DHT22;71982;52.294;6.760;2024-02-23T09:53:41;8.20;99.90
36816;DHT22;71982;52.294;6.760;2024-02-23T09:56:09;8.20;99.90
36816;DHT22;71982;52.294;6.760;2024-02-23T09:58:39;8.20;99.90
36816;DHT22;71982;52.294;6.760;2024-02-23T10:01:08;8.10;99.90
36816;DHT22;71982;52.294;6.760;2024-02-23T10:03:37;7.90;99.90
36816;DHT22;71982;52.294;6.760;2024-02-23T10:06:10;7.90;99.90
36816;DHT22;71982;52.294;6.760;2024-02-23T10:08:37;7.90;99.90
36816;DHT22;71982;52.294;6.760;2024-02-23T10:11:06;8.00;99.90
36816;DHT22;71982;52.294;6.760;2024-02-23T10:13:37;7.90;99.90
36816;DHT22;71982;52.294;6.760;2024-02-23T10:16:05;8.00;99.90
36816;DHT22;71982;52.294;6.760;2024-02-23T10:18:38;7.90;99.90
36816;DHT22;71982;52.294;6.760;2024-02-23T10:21:05;7.80;99.90
36816;DHT22;71982;52.294;6.760;2024-02-23T10:23:32;7.90;99.90
36816;DHT22;71982;52.294;6.760;2024-02-23T10:26:04;7.80;99.90
36816;DHT22;71982;52.294;6.760;2024-02-23T10:28:34;7.80;99.90
36816;DHT22;71982;52.294;6.760;2024-02-23T10:31:03;7.80;99.90
36816;DHT22;71982;52.294;6.760;2024-02-23T10:33:31;7.80;99.90
36816;DHT22;71982;52.294;6.760;2024-02-23T10:35:58;7.70;99.90
36816;DHT22;71982;52.294;6.760;2024-02-23T10:38:30;7.80;99.90
36816;DHT22;71982;52.294;6.760;2024-02-23T10:41:06;7.80;99.90
36816;DHT22;71982;52.294;6.760;2024-02-23T10:43:41;7.80;99.90
36816;DHT22;71982;52.294;6.760;2024-02-23T10:46:14;7.80;99.90
36816;DHT22;71982;52.294;6.760;2024-02-23T10:48:42;7.80;99.90
36816;DHT22;71982;52.294;6.760;2024-02-23T10:51:10;7.80;99.90
36816;DHT22;71982;52.294;6.760;2024-02-23T10:53:39;7.80;99.90
36816;DHT22;71982;52.294;6.760;2024-02-23T10:56:10;7.70;99.90
36816;DHT22;71982;52.294;6.760;2024-02-23T10:58:37;7.70;99.90
36816;DHT22;71982;52.294;6.760;2024-02-23T11:01:06;7.70;99.90
36816;DHT22;71982;52.294;6.760;2024-02-23T11:03:41;7.60;99.90
36816;DHT22;71982;52.294;6.760;2024-02-23T11:06:10;7.60;99.90
36816;DHT22;71982;52.294;6.760;2024-02-23T11:08:37;7.60;99.90
36816;DHT22;71982;52.294;6.760;2024-02-23T11:11:10;7.70;99.90
36816;DHT22;71982;52.294;6.760;2024-02-23T11:13:40;7.70;99.90
36816;DHT22;71982;52.294;6.760;2024-02-23T11:16:08;7.60;99.90
36816;DHT22;71982;52.294;6.760;2024-02-23T11:18:36;7.60;99.90
36816;DHT22;71982;52.294;6.760;2024-02-23T11:21:05;7.70;99.90
36816;DHT22;71982;52.294;6.760;2024-02-23T11:23:41;7.70;99.90
36816;DHT22;71982;52.294;6.760;2024-02-23T11:26:10;7.70;99.90
36816;DHT22;71982;52.294;6.760;2024-02-23T11:28:43;7.60;99.90
36816;DHT22;71982;52.294;6.760;2024-02-23T11:35:06;7.60;99.90
36816;DHT22;71982;52.294;6.760;2024-02-23T11:37:47;7.50;99.90
36816;DHT22;71982;52.294;6.760;2024-02-23T11:40:15;7.40;99.90
36816;DHT22;71982;52.294;6.760;2024-02-23T11:42:47;7.20;99.90
36816;DHT22;71982;52.294;6.760;2024-02-23T11:45:14;7.00;99.90
36816;DHT22;71982;52.294;6.760;2024-02-23T11:47:41;6.90;99.90
36816;DHT22;71982;52.294;6.760;2024-02-23T11:50:09;6.80;99.90
36816;DHT22;71982;52.294;6.760;2024-02-23T11:52:37;6.80;99.90
36816;DHT22;71982;52.294;6.760;2024-02-23T11:55:06;6.80;99.90
36816;DHT22;71982;52.294;6.760;2024-02-23T11:57:34;6.80;99.90
36816;DHT22;71982;52.294;6.760;2024-02-23T12:00:01;6.80;99.90
36816;DHT22;71982;52.294;6.760;2024-02-23T12:02:28;6.90;99.90
36816;DHT22;71982;52.294;6.760;2024-02-23T12:04:55;7.00;99.90
36816;DHT22;71982;52.294;6.760;2024-02-23T12:07:22;7.00;99.90
36816;DHT22;71982;52.294;6.760;2024-02-23T12:09:51;7.00;99.90
36816;DHT22;71982;52.294;6.760;2024-02-23T12:12:20;7.10;99.90
36816;DHT22;71982;52.294;6.760;2024-02-23T12:14:47;7.10;99.90
36816;DHT22;71982;52.294;6.760;2024-02-23T12:17:14;7.20;99.90
36816;DHT22;71982;52.294;6.760;2024-02-23T12:19:41;7.20;99.90
36816;DHT22;71982;52.294;6.760;2024-02-23T12:22:10;7.30;99.90
36816;DHT22;71982;52.294;6.760;2024-02-23T12:24:37;7.30;99.90
36816;DHT22;71982;52.294;6.760;2024-02-23T12:27:04;7.40;99.90
36816;DHT22;71982;52.294;6.760;2024-02-23T12:29:33;7.30;99.90
36816;DHT22;71982;52.294;6.760;2024-02-23T12:32:04;7.30;99.90
36816;DHT22;71982;52.294;6.760;2024-02-23T12:34:32;7.40;99.90
36816;DHT22;71982;52.294;6.760;2024-02-23T12:37:02;7.40;99.90
36816;DHT22;71982;52.294;6.760;2024-02-23T12:39:29;7.50;99.90
36816;DHT22;71982;52.294;6.760;2024-02-23T12:42:00;7.40;99.90
36816;DHT22;71982;52.294;6.760;2024-02-23T12:44:28;7.40;99.90
36816;DHT22;71982;52.294;6.760;2024-02-23T12:46:56;7.30;99.90
36816;DHT22;71982;52.294;6.760;2024-02-23T12:49:23;7.30;99.90
36816;DHT22;71982;52.294;6.760;2024-02-23T12:51:50;7.40;99.90
36816;DHT22;71982;52.294;6.760;2024-02-23T12:54:17;7.40;99.90
36816;DHT22;71982;52.294;6.760;2024-02-23T12:56:44;7.40;99.90
36816;DHT22;71982;52.294;6.760;2024-02-23T12:59:11;7.50;99.90
36816;DHT22;71982;52.294;6.760;2024-02-23T13:01:38;7.40;99.90
36816;DHT22;71982;52.294;6.760;2024-02-23T13:04:06;7.40;99.90
36816;DHT22;71982;52.294;6.760;2024-02-23T13:06:39;7.40;99.90
36816;DHT22;71982;52.294;6.760;2024-02-23T13:09:06;7.40;99.90
36816;DHT22;71982;52.294;6.760;2024-02-23T13:11:34;7.40;99.90
36816;DHT22;71982;52.294;6.760;2024-02-23T13:14:01;7.40;99.90
36816;DHT22;71982;52.294;6.760;2024-02-23T13:16:28;7.30;99.90
36816;DHT22;71982;52.294;6.760;2024-02-23T13:18:55;7.20;99.90
36816;DHT22;71982;52.294;6.760;2024-02-23T13:21:23;7.20;99.90
36816;DHT22;71982;52.294;6.760;2024-02-23T13:23:50;7.10;99.90
36816;DHT22;71982;52.294;6.760;2024-02-23T13:26:17;7.10;99.90
36816;DHT22;71982;52.294;6.760;2024-02-23T13:28:44;7.00;99.90
36816;DHT22;71982;52.294;6.760;2024-02-23T13:31:12;7.00;99.90
36816;DHT22;71982;52.294;6.760;2024-02-23T13:33:39;7.10;99.90
36816;DHT22;71982;52.294;6.760;2024-02-23T13:36:06;7.10;99.90
36816;DHT22;71982;52.294;6.760;2024-02-23T13:38:39;7.20;99.90
36816;DHT22;71982;52.294;6.760;2024-02-23T13:41:10;7.40;99.90
36816;DHT22;71982;52.294;6.760;2024-02-23T13:43:37;7.60;99.90
36816;DHT22;71982;52.294;6.760;2024-02-23T13:46:04;7.90;99.90
36816;DHT22;71982;52.294;6.760;2024-02-23T13:48:31;8.20;99.90
36816;DHT22;71982;52.294;6.760;2024-02-23T13:50:59;8.30;99.90
36816;DHT22;71982;52.294;6.760;2024-02-23T13:53:29;8.30;99.90
36816;DHT22;71982;52.294;6.760;2024-02-23T13:55:59;8.30;99.90
36816;DHT22;71982;52.294;6.760;2024-02-23T13:58:29;8.30;99.90
36816;DHT22;71982;52.294;6.760;2024-02-23T14:00:56;8.20;99.90
36816;DHT22;71982;52.294;6.760;2024-02-23T14:03:30;8.10;99.90
36816;DHT22;71982;52.294;6.760;2024-02-23T14:06:00;8.00;99.90
36816;DHT22;71982;52.294;6.760;2024-02-23T14:08:30;7.90;99.90
36816;DHT22;71982;52.294;6.760;2024-02-23T14:11:01;7.70;99.90
36816;DHT22;71982;52.294;6.760;2024-02-23T14:13:30;7.70;99.90
36816;DHT22;71982;52.294;6.760;2024-02-23T14:16:00;7.60;99.90
36816;DHT22;71982;52.294;6.760;2024-02-23T14:18:30;7.70;99.90
36816;DHT22;71982;52.294;6.760;2024-02-23T14:21:05;7.70;99.90
36816;DHT22;71982;52.294;6.760;2024-02-23T14:23:32;7.60;99.90
36816;DHT22;71982;52.294;6.760;2024-02-23T14:26:04;7.70;99.90
36816;DHT22;71982;52.294;6.760;2024-02-23T14:28:31;7.80;99.90
36816;DHT22;71982;52.294;6.760;2024-02-23T14:30:58;7.80;99.90
36816;DHT22;71982;52.294;6.760;2024-02-23T14:33:25;8.00;99.90
36816;DHT22;71982;52.294;6.760;2024-02-23T14:35:54;8.10;99.90
36816;DHT22;71982;52.294;6.760;2024-02-23T14:38:21;8.20;99.90
36816;DHT22;71982;52.294;6.760;2024-02-23T14:40:50;8.80;99.90
36816;DHT22;71982;52.294;6.760;2024-02-23T14:43:19;9.30;99.90
36816;DHT22;71982;52.294;6.760;2024-02-23T14:45:46;9.10;99.90
36816;DHT22;71982;52.294;6.760;2024-02-23T14:48:13;8.70;99.90
36816;DHT22;71982;52.294;6.760;2024-02-23T14:50:40;8.40;99.90
36816;DHT22;71982;52.294;6.760;2024-02-23T14:53:10;8.20;99.90
36816;DHT22;71982;52.294;6.760;2024-02-23T14:55:37;8.20;99.90
36816;DHT22;71982;52.294;6.760;2024-02-23T14:58:06;8.10;99.90
36816;DHT22;71982;52.294;6.760;2024-02-23T15:00:36;8.00;99.90
36816;DHT22;71982;52.294;6.760;2024-02-23T15:03:12;8.00;99.90
36816;DHT22;71982;52.294;6.760;2024-02-23T15:05:39;7.90;99.90
36816;DHT22;71982;52.294;6.760;2024-02-23T15:08:08;7.90;99.90
36816;DHT22;71982;52.294;6.760;2024-02-23T15:10:35;7.90;99.90
36816;DHT22;71982;52.294;6.760;2024-02-23T15:13:02;8.00;99.90
36816;DHT22;71982;52.294;6.760;2024-02-23T15:15:29;8.00;99.90
36816;DHT22;71982;52.294;6.760;2024-02-23T15:18:00;8.00;99.90
36816;DHT22;71982;52.294;6.760;2024-02-23T15:20:27;8.00;99.90
36816;DHT22;71982;52.294;6.760;2024-02-23T15:22:54;8.10;99.90
36816;DHT22;71982;52.294;6.760;2024-02-23T15:25:21;8.10;99.90
36816;DHT22;71982;52.294;6.760;2024-02-23T15:27:47;7.90;99.90
36816;DHT22;71982;52.294;6.760;2024-02-23T15:30:16;7.90;99.90
36816;DHT22;71982;52.294;6.760;2024-02-23T15:32:42;7.80;99.90
36816;DHT22;71982;52.294;6.760;2024-02-23T15:35:11;7.80;99.90
36816;DHT22;71982;52.294;6.760;2024-02-23T15:37:38;7.80;99.90
36816;DHT22;71982;52.294;6.760;2024-02-23T15:40:10;7.90;99.90
36816;DHT22;71982;52.294;6.760;2024-02-23T15:42:44;7.90;99.90
36816;DHT22;71982;52.294;6.760;2024-02-23T15:45:11;7.80;99.90
36816;DHT22;71982;52.294;6.760;2024-02-23T15:47:38;7.80;99.90
36816;DHT22;71982;52.294;6.760;2024-02-23T15:50:05;7.70;99.90
36816;DHT22;71982;52.294;6.760;2024-02-23T15:52:38;7.60;99.90
36816;DHT22;71982;52.294;6.760;2024-02-23T15:55:05;7.40;99.90
36816;DHT22;71982;52.294;6.760;2024-02-23T15:57:37;7.20;99.90